sensor_id;sensor_type;location;lat;lon;timestamp;pressure;altitude;pressure_sealevel;temperature;humidity
17607;BME280;69222;52.242;20.980;2023-07-13T00:00:04;99875.41;;;21.48;66.63
17607;BME280;69222;52.242;20.980;2023-07-13T00:02:36;99880.34;;;21.38;67.15
17607;BME280;69222;52.242;20.980;2023-07-13T00:05:05;99872.75;;;21.34;67.37
17607;BME280;69222;52.242;20.980;2023-07-13T00:07:34;99879.69;;;21.35;67.37
17607;BME280;69222;52.242;20.980;2023-07-13T00:10:05;99876.16;;;21.36;67.27
17607;BME280;69222;52.242;20.980;2023-07-13T00:12:36;99860.63;;;21.31;67.69
17607;BME280;69222;52.242;20.980;2023-07-13T00:15:09;99876.59;;;21.42;67.54
17607;BME280;69222;52.242;20.980;2023-07-13T00:17:38;99867.00;;;21.43;67.39
17607;BME280;69222;52.242;20.980;2023-07-13T00:20:07;99860.69;;;21.45;67.52
17607;BME280;69222;52.242;20.980;2023-07-13T00:22:36;99861.53;;;21.46;66.92
17607;BME280;69222;52.242;20.980;2023-07-13T00:25:06;99856.28;;;21.46;66.95
17607;BME280;69222;52.242;20.980;2023-07-13T00:27:34;99859.75;;;21.46;66.97
17607;BME280;69222;52.242;20.980;2023-07-13T00:30:03;99856.28;;;21.46;66.99
17607;BME280;69222;52.242;20.980;2023-07-13T00:32:32;99861.53;;;21.46;67.08
17607;BME280;69222;52.242;20.980;2023-07-13T00:35:00;99861.53;;;21.46;67.08
17607;BME280;69222;52.242;20.980;2023-07-13T00:37:29;99867.06;;;21.41;67.00
17607;BME280;69222;52.242;20.980;2023-07-13T00:39:58;99866.50;;;21.36;67.47
17607;BME280;69222;52.242;20.980;2023-07-13T00:42:27;99863.13;;;21.34;67.48
17607;BME280;69222;52.242;20.980;2023-07-13T00:45:03;99869.34;;;21.32;67.34
17607;BME280;69222;52.242;20.980;2023-07-13T00:47:32;99869.44;;;21.30;67.43
17607;BME280;69222;52.242;20.980;2023-07-13T00:50:00;99866.16;;;21.27;67.70
17607;BME280;69222;52.242;20.980;2023-07-13T00:52:30;99855.00;;;21.23;67.72
17607;BME280;69222;52.242;20.980;2023-07-13T00:54:58;99851.72;;;21.19;67.94
17607;BME280;69222;52.242;20.980;2023-07-13T00:57:27;99861.25;;;21.20;67.93
17607;BME280;69222;52.242;20.980;2023-07-13T00:59:58;99864.75;;;21.21;68.12
17607;BME280;69222;52.242;20.980;2023-07-13T01:02:28;99849.94;;;21.20;68.07
17607;BME280;69222;52.242;20.980;2023-07-13T01:04:56;99854.34;;;21.19;68.15
17607;BME280;69222;52.242;20.980;2023-07-13T01:07:25;99848.38;;;21.17;68.23
17607;BME280;69222;52.242;20.980;2023-07-13T01:09:53;99855.56;;;21.14;68.11
17607;BME280;69222;52.242;20.980;2023-07-13T01:12:21;99854.69;;;21.13;68.34
17607;BME280;69222;52.242;20.980;2023-07-13T01:14:56;99862.47;;;21.15;68.47
17607;BME280;69222;52.242;20.980;2023-07-13T01:17:24;99852.84;;;21.15;68.44
17607;BME280;69222;52.242;20.980;2023-07-13T01:19:53;99862.31;;;21.18;68.35
17607;BME280;69222;52.242;20.980;2023-07-13T01:22:22;99867.38;;;21.21;68.62
17607;BME280;69222;52.242;20.980;2023-07-13T01:24:53;99867.28;;;21.22;68.23
17607;BME280;69222;52.242;20.980;2023-07-13T01:27:23;99856.13;;;21.19;68.38
17607;BME280;69222;52.242;20.980;2023-07-13T01:29:53;99864.66;;;21.22;68.28
17607;BME280;69222;52.242;20.980;2023-07-13T01:32:30;99870.00;;;21.21;68.25
17607;BME280;69222;52.242;20.980;2023-07-13T01:34:59;99877.19;;;21.17;68.64
17607;BME280;69222;52.242;20.980;2023-07-13T01:37:29;99878.28;;;21.13;68.72
17607;BME280;69222;52.242;20.980;2023-07-13T01:39:59;99880.16;;;21.11;68.73
17607;BME280;69222;52.242;20.980;2023-07-13T01:42:28;99894.94;;;21.12;68.90
17607;BME280;69222;52.242;20.980;2023-07-13T01:44:56;99893.09;;;21.14;68.58
17607;BME280;69222;52.242;20.980;2023-07-13T01:47:24;99891.47;;;21.12;68.56
17607;BME280;69222;52.242;20.980;2023-07-13T01:49:52;99891.56;;;21.10;68.57
17607;BME280;69222;52.242;20.980;2023-07-13T01:52:21;99886.69;;;21.04;69.00
17607;BME280;69222;52.242;20.980;2023-07-13T01:54:50;99890.25;;;21.03;69.29
17607;BME280;69222;52.242;20.980;2023-07-13T01:57:18;99892.03;;;21.03;69.21
17607;BME280;69222;52.242;20.980;2023-07-13T01:59:46;99888.72;;;20.99;69.17
17607;BME280;69222;52.242;20.980;2023-07-13T02:02:14;99892.25;;;20.98;69.29
17607;BME280;69222;52.242;20.980;2023-07-13T02:04:43;99890.41;;;21.00;69.13
17607;BME280;69222;52.242;20.980;2023-07-13T02:07:11;99888.53;;;21.02;69.15
17607;BME280;69222;52.242;20.980;2023-07-13T02:09:39;99891.16;;;21.02;69.18
17607;BME280;69222;52.242;20.980;2023-07-13T02:12:08;99891.16;;;21.02;69.28
17607;BME280;69222;52.242;20.980;2023-07-13T02:14:37;99899.88;;;21.03;69.31
17607;BME280;69222;52.242;20.980;2023-07-13T02:17:05;99908.56;;;21.03;69.24
17607;BME280;69222;52.242;20.980;2023-07-13T02:19:33;99901.56;;;21.04;69.34
17607;BME280;69222;52.242;20.980;2023-07-13T02:22:01;99901.63;;;21.02;69.43
17607;BME280;69222;52.242;20.980;2023-07-13T02:24:29;99895.47;;;21.03;69.22
17607;BME280;69222;52.242;20.980;2023-07-13T02:26:57;99902.84;;;20.96;69.24
17607;BME280;69222;52.242;20.980;2023-07-13T02:29:26;99904.69;;;20.94;69.94
17607;BME280;69222;52.242;20.980;2023-07-13T02:31:54;99899.38;;;20.96;69.79
17607;BME280;69222;52.242;20.980;2023-07-13T02:34:22;99904.63;;;20.96;69.82
17607;BME280;69222;52.242;20.980;2023-07-13T02:36:50;99902.84;;;20.96;69.89
17607;BME280;69222;52.242;20.980;2023-07-13T02:39:18;99908.91;;;20.97;69.64
17607;BME280;69222;52.242;20.980;2023-07-13T02:41:46;99914.06;;;20.98;69.84
17607;BME280;69222;52.242;20.980;2023-07-13T02:44:15;99901.06;;;20.97;69.72
17607;BME280;69222;52.242;20.980;2023-07-13T02:46:44;99902.75;;;20.98;69.85
17607;BME280;69222;52.242;20.980;2023-07-13T02:49:12;99898.34;;;20.98;69.95
17607;BME280;69222;52.242;20.980;2023-07-13T02:51:40;99904.44;;;20.99;69.84
17607;BME280;69222;52.242;20.980;2023-07-13T02:54:09;99902.00;;;20.96;69.55
17607;BME280;69222;52.242;20.980;2023-07-13T02:56:40;99896.66;;;20.97;69.88
17607;BME280;69222;52.242;20.980;2023-07-13T02:59:10;99900.88;;;21.00;69.92
17607;BME280;69222;52.242;20.980;2023-07-13T03:01:38;99891.25;;;21.01;69.78
17607;BME280;69222;52.242;20.980;2023-07-13T03:04:08;99889.75;;;20.96;69.81
17607;BME280;69222;52.242;20.980;2023-07-13T03:06:37;99888.53;;;21.02;69.73
17607;BME280;69222;52.242;20.980;2023-07-13T03:09:05;99895.47;;;21.03;69.65
17607;BME280;69222;52.242;20.980;2023-07-13T03:11:33;99901.72;;;21.01;69.72
17607;BME280;69222;52.242;20.980;2023-07-13T03:14:01;99899.28;;;20.97;70.20
17607;BME280;69222;52.242;20.980;2023-07-13T03:16:29;99893.38;;;20.94;70.15
17607;BME280;69222;52.242;20.980;2023-07-13T03:18:57;99900.28;;;20.95;70.21
17607;BME280;69222;52.242;20.980;2023-07-13T03:21:26;99896.00;;;20.94;70.24
17607;BME280;69222;52.242;20.980;2023-07-13T03:23:54;99890.91;;;20.91;70.27
17607;BME280;69222;52.242;20.980;2023-07-13T03:26:22;99894.47;;;20.90;70.20
17607;BME280;69222;52.242;20.980;2023-07-13T03:28:50;99897.88;;;20.92;70.43
17607;BME280;69222;52.242;20.980;2023-07-13T03:31:21;99890.19;;;20.89;70.43
17607;BME280;69222;52.242;20.980;2023-07-13T03:33:50;99887.56;;;20.89;70.36
17607;BME280;69222;52.242;20.980;2023-07-13T03:36:20;99885.09;;;20.86;70.52
17607;BME280;69222;52.242;20.980;2023-07-13T03:38:52;99878.94;;;20.87;70.63
17607;BME280;69222;52.242;20.980;2023-07-13T03:41:20;99876.25;;;20.88;71.04
17607;BME280;69222;52.242;20.980;2023-07-13T03:43:49;99880.38;;;20.92;70.97
17607;BME280;69222;52.242;20.980;2023-07-13T03:46:18;99873.19;;;20.96;70.80
17607;BME280;69222;52.242;20.980;2023-07-13T03:48:47;99878.16;;;21.01;71.20
17607;BME280;69222;52.242;20.980;2023-07-13T03:51:16;99880.59;;;21.04;70.98
17607;BME280;69222;52.242;20.980;2023-07-13T03:53:46;99873.25;;;21.10;70.71
17607;BME280;69222;52.242;20.980;2023-07-13T03:56:17;99873.91;;;21.14;70.53
17607;BME280;69222;52.242;20.980;2023-07-13T03:58:47;99881.50;;;21.18;70.04
17607;BME280;69222;52.242;20.980;2023-07-13T04:01:16;99883.94;;;21.21;69.96
17607;BME280;69222;52.242;20.980;2023-07-13T04:03:44;99881.72;;;21.30;69.92
17607;BME280;69222;52.242;20.980;2023-07-13T04:06:16;99878.78;;;21.36;69.75
17607;BME280;69222;52.242;20.980;2023-07-13T04:08:49;99887.03;;;21.44;69.83
17607;BME280;69222;52.242;20.980;2023-07-13T04:11:20;99886.56;;;21.52;69.73
17607;BME280;69222;52.242;20.980;2023-07-13T04:13:49;99895.66;;;21.60;69.47
17607;BME280;69222;52.242;20.980;2023-07-13T04:16:18;99894.72;;;21.76;69.64
17607;BME280;69222;52.242;20.980;2023-07-13T04:18:47;99904.03;;;21.95;68.96
17607;BME280;69222;52.242;20.980;2023-07-13T04:21:16;99903.47;;;22.19;68.29
17607;BME280;69222;52.242;20.980;2023-07-13T04:23:44;99910.28;;;22.50;67.62
17607;BME280;69222;52.242;20.980;2023-07-13T04:26:12;99910.00;;;22.82;66.68
17607;BME280;69222;52.242;20.980;2023-07-13T04:28:41;99914.25;;;23.11;65.63
17607;BME280;69222;52.242;20.980;2023-07-13T04:31:09;99924.59;;;23.27;64.55
17607;BME280;69222;52.242;20.980;2023-07-13T04:33:38;99933.03;;;23.32;63.98
17607;BME280;69222;52.242;20.980;2023-07-13T04:36:06;99924.38;;;23.30;64.25
17607;BME280;69222;52.242;20.980;2023-07-13T04:38:36;99931.63;;;23.27;64.35
17607;BME280;69222;52.242;20.980;2023-07-13T04:41:07;99927.72;;;23.20;65.03
17607;BME280;69222;52.242;20.980;2023-07-13T04:43:36;99928.13;;;23.13;65.07
17607;BME280;69222;52.242;20.980;2023-07-13T04:46:06;99930.97;;;23.10;65.38
17607;BME280;69222;52.242;20.980;2023-07-13T04:48:35;99931.34;;;23.04;65.67
17607;BME280;69222;52.242;20.980;2023-07-13T04:51:04;99934.41;;;22.98;65.92
17607;BME280;69222;52.242;20.980;2023-07-13T04:53:32;99947.13;;;22.90;66.32
17607;BME280;69222;52.242;20.980;2023-07-13T04:56:01;99929.03;;;22.85;66.68
17607;BME280;69222;52.242;20.980;2023-07-13T04:58:30;99929.16;;;22.84;66.77
17607;BME280;69222;52.242;20.980;2023-07-13T05:01:02;99924.63;;;22.86;67.01
17607;BME280;69222;52.242;20.980;2023-07-13T05:03:32;99929.88;;;22.86;67.05
17607;BME280;69222;52.242;20.980;2023-07-13T05:06:03;99938.59;;;22.86;67.25
17607;BME280;69222;52.242;20.980;2023-07-13T05:08:31;99942.09;;;22.87;67.51
17607;BME280;69222;52.242;20.980;2023-07-13T05:11:00;99947.09;;;22.92;67.38
17607;BME280;69222;52.242;20.980;2023-07-13T05:13:28;99949.53;;;22.95;67.22
17607;BME280;69222;52.242;20.980;2023-07-13T05:15:58;99944.91;;;22.98;66.96
17607;BME280;69222;52.242;20.980;2023-07-13T05:18:27;99946.59;;;22.99;66.82
17607;BME280;69222;52.242;20.980;2023-07-13T05:21:02;99954.66;;;22.96;66.76
17607;BME280;69222;52.242;20.980;2023-07-13T05:23:31;99957.88;;;22.87;67.00
17607;BME280;69222;52.242;20.980;2023-07-13T05:25:59;99974.09;;;22.94;67.32
17607;BME280;69222;52.242;20.980;2023-07-13T05:28:28;99978.47;;;23.07;67.29
17607;BME280;69222;52.242;20.980;2023-07-13T05:30:56;99977.97;;;23.15;66.43
17607;BME280;69222;52.242;20.980;2023-07-13T05:33:25;99975.69;;;23.23;66.75
17607;BME280;69222;52.242;20.980;2023-07-13T05:35:54;99985.81;;;23.29;65.82
17607;BME280;69222;52.242;20.980;2023-07-13T05:38:23;99981.66;;;23.52;65.85
17607;BME280;69222;52.242;20.980;2023-07-13T05:40:53;99984.06;;;23.95;65.15
17607;BME280;69222;52.242;20.980;2023-07-13T05:43:22;99985.56;;;24.50;62.75
17607;BME280;69222;52.242;20.980;2023-07-13T05:45:52;99985.50;;;24.76;61.44
17607;BME280;69222;52.242;20.980;2023-07-13T05:48:20;99981.81;;;25.02;60.71
17607;BME280;69222;52.242;20.980;2023-07-13T05:50:48;99982.44;;;25.19;59.90
17607;BME280;69222;52.242;20.980;2023-07-13T05:53:17;99988.69;;;25.29;59.42
17607;BME280;69222;52.242;20.980;2023-07-13T05:55:47;99985.47;;;25.37;59.00
17607;BME280;69222;52.242;20.980;2023-07-13T05:58:17;99981.75;;;25.28;59.07
17607;BME280;69222;52.242;20.980;2023-07-13T06:00:45;99977.88;;;25.21;59.05
17607;BME280;69222;52.242;20.980;2023-07-13T06:03:14;99964.09;;;25.04;59.20
17607;BME280;69222;52.242;20.980;2023-07-13T06:05:42;99958.94;;;24.79;59.41
17607;BME280;69222;52.242;20.980;2023-07-13T06:08:11;99956.44;;;24.52;60.05
17607;BME280;69222;52.242;20.980;2023-07-13T06:10:39;99967.13;;;24.38;59.80
17607;BME280;69222;52.242;20.980;2023-07-13T06:13:08;99966.91;;;24.41;59.80
17607;BME280;69222;52.242;20.980;2023-07-13T06:15:36;99963.38;;;24.66;58.82
17607;BME280;69222;52.242;20.980;2023-07-13T06:18:04;99968.44;;;24.69;56.72
17607;BME280;69222;52.242;20.980;2023-07-13T06:20:34;99976.34;;;24.69;55.73
17607;BME280;69222;52.242;20.980;2023-07-13T06:23:02;99964.28;;;25.14;55.93
17607;BME280;69222;52.242;20.980;2023-07-13T06:25:30;99958.25;;;26.29;52.97
17607;BME280;69222;52.242;20.980;2023-07-13T06:27:58;99956.72;;;27.57;48.59
17607;BME280;69222;52.242;20.980;2023-07-13T06:30:28;99954.03;;;29.68;43.71
17607;BME280;69222;52.242;20.980;2023-07-13T06:32:56;99940.28;;;31.56;39.09
17607;BME280;69222;52.242;20.980;2023-07-13T06:35:24;99942.31;;;33.40;35.59
17607;BME280;69222;52.242;20.980;2023-07-13T06:37:52;99944.72;;;35.17;32.21
17607;BME280;69222;52.242;20.980;2023-07-13T06:40:20;99941.69;;;36.46;28.50
17607;BME280;69222;52.242;20.980;2023-07-13T06:42:48;99941.19;;;37.37;27.47
17607;BME280;69222;52.242;20.980;2023-07-13T06:45:16;99935.75;;;38.08;25.93
17607;BME280;69222;52.242;20.980;2023-07-13T06:47:46;99934.41;;;38.86;25.16
17607;BME280;69222;52.242;20.980;2023-07-13T06:50:14;99937.94;;;39.87;23.71
17607;BME280;69222;52.242;20.980;2023-07-13T06:52:42;99931.34;;;40.34;21.84
17607;BME280;69222;52.242;20.980;2023-07-13T06:55:10;99944.69;;;40.22;20.97
17607;BME280;69222;52.242;20.980;2023-07-13T06:57:38;99942.97;;;40.35;21.45
17607;BME280;69222;52.242;20.980;2023-07-13T07:00:07;99933.72;;;40.94;21.09
17607;BME280;69222;52.242;20.980;2023-07-13T07:02:36;99931.38;;;41.97;20.03
17607;BME280;69222;52.242;20.980;2023-07-13T07:05:06;99927.53;;;41.87;19.44
17607;BME280;69222;52.242;20.980;2023-07-13T07:07:34;99929.16;;;41.69;20.10
17607;BME280;69222;52.242;20.980;2023-07-13T07:10:03;99922.19;;;42.35;19.38
17607;BME280;69222;52.242;20.980;2023-07-13T07:12:31;99925.88;;;42.71;17.30
17607;BME280;69222;52.242;20.980;2023-07-13T07:14:59;99931.56;;;43.35;16.07
17607;BME280;69222;52.242;20.980;2023-07-13T07:17:27;99932.03;;;43.20;14.57
17607;BME280;69222;52.242;20.980;2023-07-13T07:19:55;99934.31;;;42.63;14.95
17607;BME280;69222;52.242;20.980;2023-07-13T07:22:25;99937.72;;;42.28;15.76
17607;BME280;69222;52.242;20.980;2023-07-13T07:24:54;99940.03;;;42.06;16.48
17607;BME280;69222;52.242;20.980;2023-07-13T07:27:22;99939.34;;;42.29;16.34
17607;BME280;69222;52.242;20.980;2023-07-13T07:29:53;99941.38;;;42.94;15.53
17607;BME280;69222;52.242;20.980;2023-07-13T07:32:41;99943.84;;;43.61;15.23
17607;BME280;69222;52.242;20.980;2023-07-13T07:35:12;99932.03;;;43.20;14.96
17607;BME280;69222;52.242;20.980;2023-07-13T07:37:42;99938.16;;;42.55;16.12
17607;BME280;69222;52.242;20.980;2023-07-13T07:40:12;99941.44;;;42.27;17.14
17607;BME280;69222;52.242;20.980;2023-07-13T07:42:43;99942.09;;;42.41;17.13
17607;BME280;69222;52.242;20.980;2023-07-13T07:45:11;99937.50;;;43.02;16.76
17607;BME280;69222;52.242;20.980;2023-07-13T07:47:40;99936.72;;;43.25;16.48
17607;BME280;69222;52.242;20.980;2023-07-13T07:50:09;99936.63;;;43.31;16.07
17607;BME280;69222;52.242;20.980;2023-07-13T07:52:37;99941.31;;;42.70;15.87
17607;BME280;69222;52.242;20.980;2023-07-13T07:55:07;99939.00;;;41.64;16.33
17607;BME280;69222;52.242;20.980;2023-07-13T07:57:38;99936.47;;;39.91;18.32
17607;BME280;69222;52.242;20.980;2023-07-13T08:00:10;99954.28;;;38.85;20.00
17607;BME280;69222;52.242;20.980;2023-07-13T08:02:43;99948.41;;;37.86;20.84
17607;BME280;69222;52.242;20.980;2023-07-13T08:05:14;99942.91;;;36.44;22.32
17607;BME280;69222;52.242;20.980;2023-07-13T08:07:45;99954.88;;;34.90;24.61
17607;BME280;69222;52.242;20.980;2023-07-13T08:10:15;99950.16;;;33.58;26.57
17607;BME280;69222;52.242;20.980;2023-07-13T08:12:43;99947.03;;;32.63;28.41
17607;BME280;69222;52.242;20.980;2023-07-13T08:15:31;99960.94;;;32.06;29.37
17607;BME280;69222;52.242;20.980;2023-07-13T08:17:59;99956.53;;;31.71;29.29
17607;BME280;69222;52.242;20.980;2023-07-13T08:20:27;99955.34;;;31.47;29.79
17607;BME280;69222;52.242;20.980;2023-07-13T08:22:55;99964.03;;;31.14;30.02
17607;BME280;69222;52.242;20.980;2023-07-13T08:25:24;99959.91;;;30.84;30.14
17607;BME280;69222;52.242;20.980;2023-07-13T08:27:52;99958.50;;;30.52;31.05
17607;BME280;69222;52.242;20.980;2023-07-13T08:30:20;99961.72;;;30.28;31.22
17607;BME280;69222;52.242;20.980;2023-07-13T08:32:49;99962.56;;;30.28;31.69
17607;BME280;69222;52.242;20.980;2023-07-13T08:35:17;99961.06;;;30.44;32.31
17607;BME280;69222;52.242;20.980;2023-07-13T08:37:46;99959.78;;;30.48;32.51
17607;BME280;69222;52.242;20.980;2023-07-13T08:40:15;99960.06;;;30.27;32.54
17607;BME280;69222;52.242;20.980;2023-07-13T08:42:52;99964.81;;;30.14;33.04
17607;BME280;69222;52.242;20.980;2023-07-13T08:45:23;99966.53;;;30.05;33.54
17607;BME280;69222;52.242;20.980;2023-07-13T08:47:56;99967.91;;;30.09;33.33
17607;BME280;69222;52.242;20.980;2023-07-13T08:50:28;99971.53;;;30.27;33.72
17607;BME280;69222;52.242;20.980;2023-07-13T08:53:21;99976.34;;;30.42;33.65
17607;BME280;69222;52.242;20.980;2023-07-13T08:55:57;99973.09;;;30.48;33.54
17607;BME280;69222;52.242;20.980;2023-07-13T08:58:28;99966.00;;;30.66;33.75
17607;BME280;69222;52.242;20.980;2023-07-13T09:01:03;99979.59;;;30.91;33.00
17607;BME280;69222;52.242;20.980;2023-07-13T09:03:39;99981.44;;;31.08;32.82
17607;BME280;69222;52.242;20.980;2023-07-13T09:06:10;99986.91;;;31.24;32.93
17607;BME280;69222;52.242;20.980;2023-07-13T09:08:54;99982.41;;;31.25;32.90
17607;BME280;69222;52.242;20.980;2023-07-13T09:11:36;99972.56;;;31.35;32.96
17607;BME280;69222;52.242;20.980;2023-07-13T09:14:37;99969.44;;;31.40;33.01
17607;BME280;69222;52.242;20.980;2023-07-13T09:17:14;99961.13;;;31.25;32.74
17607;BME280;69222;52.242;20.980;2023-07-13T09:19:43;99971.63;;;30.91;33.12
17607;BME280;69222;52.242;20.980;2023-07-13T09:22:17;99966.00;;;30.66;33.64
17607;BME280;69222;52.242;20.980;2023-07-13T09:24:53;99959.22;;;30.54;33.96
17607;BME280;69222;52.242;20.980;2023-07-13T09:27:29;99960.44;;;30.32;34.57
17607;BME280;69222;52.242;20.980;2023-07-13T09:30:05;99962.88;;;30.06;34.93
17607;BME280;69222;52.242;20.980;2023-07-13T09:32:47;99968.13;;;29.78;35.75
17607;BME280;69222;52.242;20.980;2023-07-13T09:35:21;99971.38;;;29.63;35.71
17607;BME280;69222;52.242;20.980;2023-07-13T09:37:50;99975.00;;;29.13;36.56
17607;BME280;69222;52.242;20.980;2023-07-13T09:40:23;99985.97;;;28.39;38.18
17607;BME280;69222;52.242;20.980;2023-07-13T09:42:53;99979.97;;;27.74;39.34
17607;BME280;69222;52.242;20.980;2023-07-13T09:45:28;99998.25;;;27.24;40.74
17607;BME280;69222;52.242;20.980;2023-07-13T09:48:04;99984.66;;;26.74;41.44
17607;BME280;69222;52.242;20.980;2023-07-13T09:50:33;99970.25;;;26.44;41.92
17607;BME280;69222;52.242;20.980;2023-07-13T09:53:02;99958.22;;;26.18;42.65
17607;BME280;69222;52.242;20.980;2023-07-13T09:55:31;99957.97;;;26.10;42.83
17607;BME280;69222;52.242;20.980;2023-07-13T09:58:04;99949.34;;;26.53;42.40
17607;BME280;69222;52.242;20.980;2023-07-13T10:00:36;99955.94;;;27.45;39.96
17607;BME280;69222;52.242;20.980;2023-07-13T10:03:05;99950.22;;;28.03;38.51
17607;BME280;69222;52.242;20.980;2023-07-13T10:05:43;99945.00;;;28.22;37.81
17607;BME280;69222;52.242;20.980;2023-07-13T10:08:17;99943.03;;;28.24;37.70
17607;BME280;69222;52.242;20.980;2023-07-13T10:10:46;99931.53;;;28.04;37.65
17607;BME280;69222;52.242;20.980;2023-07-13T10:13:35;99933.63;;;27.80;38.44
17607;BME280;69222;52.242;20.980;2023-07-13T10:16:06;99932.47;;;27.52;38.96
17607;BME280;69222;52.242;20.980;2023-07-13T10:18:39;99930.00;;;27.18;39.52
17607;BME280;69222;52.242;20.980;2023-07-13T10:21:15;99936.47;;;26.70;40.91
17607;BME280;69222;52.242;20.980;2023-07-13T10:23:50;99938.28;;;26.25;41.55
17607;BME280;69222;52.242;20.980;2023-07-13T10:26:22;99947.63;;;25.84;42.94
17607;BME280;69222;52.242;20.980;2023-07-13T10:28:54;99939.00;;;25.47;43.97
17607;BME280;69222;52.242;20.980;2023-07-13T10:31:25;99938.44;;;25.19;44.63
17607;BME280;69222;52.242;20.980;2023-07-13T10:33:53;99940.94;;;24.97;45.67
17607;BME280;69222;52.242;20.980;2023-07-13T10:36:29;99948.66;;;24.87;46.89
17607;BME280;69222;52.242;20.980;2023-07-13T10:39:01;99960.47;;;24.81;47.29
17607;BME280;69222;52.242;20.980;2023-07-13T10:41:34;99967.53;;;24.81;48.79
17607;BME280;69222;52.242;20.980;2023-07-13T10:44:04;99982.66;;;24.79;50.60
17607;BME280;69222;52.242;20.980;2023-07-13T10:46:41;100003.88;;;24.65;53.40
17607;BME280;69222;52.242;20.980;2023-07-13T10:49:10;100007.03;;;24.31;55.75
17607;BME280;69222;52.242;20.980;2023-07-13T10:51:39;99990.81;;;23.99;57.27
17607;BME280;69222;52.242;20.980;2023-07-13T10:54:15;99995.81;;;23.64;59.34
17607;BME280;69222;52.242;20.980;2023-07-13T10:56:48;99987.94;;;23.37;60.66
17607;BME280;69222;52.242;20.980;2023-07-13T10:59:18;99993.75;;;23.15;61.73
17607;BME280;69222;52.242;20.980;2023-07-13T11:02:00;100010.50;;;22.85;62.62
17607;BME280;69222;52.242;20.980;2023-07-13T11:04:40;100029.19;;;22.52;64.49
17607;BME280;69222;52.242;20.980;2023-07-13T11:07:20;100041.94;;;22.30;65.72
17607;BME280;69222;52.242;20.980;2023-07-13T11:09:52;100053.19;;;22.17;66.40
17607;BME280;69222;52.242;20.980;2023-07-13T11:15:12;100048.13;;;22.14;66.10
17607;BME280;69222;52.242;20.980;2023-07-13T11:17:49;100047.28;;;22.14;65.54
17607;BME280;69222;52.242;20.980;2023-07-13T11:20:24;100058.38;;;22.03;66.11
17607;BME280;69222;52.242;20.980;2023-07-13T11:23:18;100055.16;;;21.98;66.56
17607;BME280;69222;52.242;20.980;2023-07-13T11:25:47;100059.09;;;22.05;67.37
17607;BME280;69222;52.242;20.980;2023-07-13T11:28:17;100057.06;;;22.10;67.16
17607;BME280;69222;52.242;20.980;2023-07-13T11:30:50;100049.03;;;22.13;67.62
17607;BME280;69222;52.242;20.980;2023-07-13T11:33:49;100057.31;;;22.22;67.11
17607;BME280;69222;52.242;20.980;2023-07-13T11:36:19;100055.06;;;22.30;66.77
17607;BME280;69222;52.242;20.980;2023-07-13T11:38:57;100065.22;;;22.36;66.23
17607;BME280;69222;52.242;20.980;2023-07-13T11:41:28;100077.09;;;22.41;65.93
17607;BME280;69222;52.242;20.980;2023-07-13T11:44:06;100074.00;;;22.35;65.49
17607;BME280;69222;52.242;20.980;2023-07-13T11:46:35;100076.63;;;22.35;66.25
17607;BME280;69222;52.242;20.980;2023-07-13T11:49:06;100068.97;;;22.32;66.70
17607;BME280;69222;52.242;20.980;2023-07-13T11:51:36;100069.78;;;22.18;67.16
17607;BME280;69222;52.242;20.980;2023-07-13T11:54:06;100075.34;;;22.12;67.08
17607;BME280;69222;52.242;20.980;2023-07-13T11:56:36;100083.50;;;22.07;67.54
17607;BME280;69222;52.242;20.980;2023-07-13T11:59:06;100082.81;;;22.04;67.36
17607;BME280;69222;52.242;20.980;2023-07-13T12:01:41;100083.94;;;22.00;66.65
17607;BME280;69222;52.242;20.980;2023-07-13T12:04:21;100084.22;;;21.95;65.39
17607;BME280;69222;52.242;20.980;2023-07-13T12:06:55;100088.28;;;21.85;65.63
17607;BME280;69222;52.242;20.980;2023-07-13T12:09:27;100087.47;;;21.84;66.13
17607;BME280;69222;52.242;20.980;2023-07-13T12:11:57;100079.16;;;21.92;66.19
17607;BME280;69222;52.242;20.980;2023-07-13T12:14:27;100082.16;;;22.00;66.02
17607;BME280;69222;52.242;20.980;2023-07-13T12:16:55;100080.09;;;22.05;65.05
17607;BME280;69222;52.242;20.980;2023-07-13T12:19:27;100080.44;;;22.15;64.30
17607;BME280;69222;52.242;20.980;2023-07-13T12:21:57;100071.94;;;22.26;62.90
17607;BME280;69222;52.242;20.980;2023-07-13T12:24:26;100064.84;;;22.28;62.67
17607;BME280;69222;52.242;20.980;2023-07-13T12:27:00;100061.97;;;22.16;62.19
17607;BME280;69222;52.242;20.980;2023-07-13T12:29:29;100063.44;;;22.06;62.84
17607;BME280;69222;52.242;20.980;2023-07-13T12:31:58;100070.38;;;22.07;63.64
17607;BME280;69222;52.242;20.980;2023-07-13T12:34:27;100068.09;;;22.17;62.89
17607;BME280;69222;52.242;20.980;2023-07-13T12:36:59;100057.50;;;22.18;61.81
17607;BME280;69222;52.242;20.980;2023-07-13T12:39:32;100042.13;;;22.27;62.14
17607;BME280;69222;52.242;20.980;2023-07-13T12:42:18;100040.44;;;22.26;62.30
17607;BME280;69222;52.242;20.980;2023-07-13T12:44:48;100036.78;;;22.14;63.18
17607;BME280;69222;52.242;20.980;2023-07-13T12:47:16;100037.50;;;22.16;64.46
17607;BME280;69222;52.242;20.980;2023-07-13T12:49:53;100045.50;;;22.29;65.46
17607;BME280;69222;52.242;20.980;2023-07-13T12:52:24;100048.34;;;22.40;65.81
17607;BME280;69222;52.242;20.980;2023-07-13T12:55:04;100049.72;;;22.46;65.89
17607;BME280;69222;52.242;20.980;2023-07-13T12:57:38;100049.66;;;22.47;65.73
17607;BME280;69222;52.242;20.980;2023-07-13T13:00:22;100055.84;;;22.46;65.70
17607;BME280;69222;52.242;20.980;2023-07-13T13:02:53;100046.44;;;22.42;65.92
17607;BME280;69222;52.242;20.980;2023-07-13T13:05:35;100046.34;;;22.29;65.84
17607;BME280;69222;52.242;20.980;2023-07-13T13:08:04;100039.81;;;22.06;65.84